Huvudsida
METAR-TAF:

METAR-TAF

Flygplatser :

Røsts flygplats

Røst, Norge

latitud: 67-31N, longitud: 012-06E, höjd: 4 m

Aktuellt väderrapport

Denna rapport gjordes för 4 timmar och 11 minuter sedan, klockan 18:50 UTC
Vind 12 kt från sydost
Temperatur -1°C
Fuktighet 64%
Tryck 1007 hPa
Sikt: 8000 m
Spridda moln på en höjd av 2000 ft
Brutna moln på en höjd av 3500 ft
skurar i närheten

METAR: ENRS 231850Z 13012KT 9999 8000N VCSH SCT020 BKN035 M01/M07 Q1007

Tid: 00:01 (23:01 UTC)


TAF: saknas

Aktuella väderrapporter och prognoser från 4000 flygplatser (METAR- och TAF-rapporter).

De tillgängliga stationerna syns som gula och röda prickar på kartan.

För musen över prickarna för att se namnen på stationerna.

Klicka sedan för att få väderrapporter och prognoser.

För att ändra kartan: Klicka på de gröna knapparna med ett svart kors på för att zooma in; den gröna knappen med ett streck på för att zooma ut; eller på de gröna pilarna för angränsande kartor.


METAR-TAF: